createdAt,value
2017-09-23T00:00:22.553Z,24.1
2017-09-23T00:02:54.641Z,24.1
2017-09-23T00:03:56.768Z,24.1
2017-09-23T00:04:58.226Z,24.1
2017-09-23T00:06:00.351Z,24.1
2017-09-23T00:07:02.142Z,24.1
2017-09-23T00:08:03.581Z,24.1
2017-09-23T00:09:04.705Z,24
2017-09-23T00:10:06.497Z,24.1
2017-09-23T00:11:08.291Z,24
2017-09-23T00:12:10.101Z,24.1
2017-09-23T00:13:12.228Z,24
2017-09-23T00:14:14.021Z,24.1
2017-09-23T00:15:15.794Z,24.1
2017-09-23T00:16:17.920Z,24
2017-09-23T00:17:19.355Z,24.1
2017-09-23T00:18:21.483Z,24
2017-09-23T00:19:22.920Z,24
2017-09-23T00:20:24.357Z,24
2017-09-23T00:21:25.796Z,24.1
2017-09-23T00:22:27.234Z,24.1
2017-09-23T00:23:29.028Z,24
2017-09-23T00:24:30.170Z,24
2017-09-23T00:25:31.258Z,24
2017-09-23T00:26:33.389Z,24
2017-09-23T00:27:34.154Z,24.1
2017-09-23T00:28:36.280Z,24
2017-09-23T00:29:38.056Z,24
2017-09-23T00:30:39.503Z,24
2017-09-23T00:31:41.286Z,24
2017-09-23T00:32:43.413Z,24.1
2017-09-23T00:33:45.206Z,24.1
2017-09-23T00:34:46.997Z,24.1
2017-09-23T00:35:48.453Z,24
2017-09-23T00:36:49.906Z,24.1
2017-09-23T00:37:52.036Z,24
2017-09-23T00:38:53.845Z,24
2017-09-23T00:39:55.286Z,24
2017-09-23T00:40:57.413Z,24.1
2017-09-23T00:41:59.204Z,24
2017-09-23T00:43:00.309Z,24
2017-09-23T00:44:02.102Z,24.1
2017-09-23T00:45:04.230Z,24.1
2017-09-23T00:46:05.684Z,24
2017-09-23T00:47:07.479Z,24
2017-09-23T00:48:09.274Z,24.1
2017-09-23T00:49:10.731Z,24.1
2017-09-23T00:50:12.526Z,24
2017-09-23T00:51:14.656Z,24
2017-09-23T00:52:16.450Z,24
2017-09-23T00:53:18.576Z,24
2017-09-23T00:54:20.367Z,24
2017-09-23T00:55:22.138Z,24
2017-09-23T00:56:23.908Z,24
2017-09-23T00:57:25.366Z,24
2017-09-23T00:58:26.829Z,24
2017-09-23T00:59:28.599Z,24
2017-09-23T01:00:30.727Z,24
2017-09-23T01:01:32.168Z,24
2017-09-23T01:02:33.604Z,24
2017-09-23T01:03:35.395Z,24.1
2017-09-23T01:04:37.231Z,24
2017-09-23T01:05:38.666Z,24
2017-09-23T01:06:40.796Z,23.9
2017-09-23T01:07:42.922Z,24
2017-09-23T01:08:44.381Z,24
2017-09-23T01:09:46.155Z,24
2017-09-23T01:10:47.614Z,24
2017-09-23T01:11:49.073Z,23.9
2017-09-23T01:12:51.200Z,23.9
2017-09-23T01:13:52.974Z,24
2017-09-23T01:14:55.102Z,23.9
2017-09-23T01:15:56.542Z,24
2017-09-23T01:16:58.671Z,23.9
2017-09-23T01:18:00.466Z,23.9
2017-09-23T01:19:02.261Z,24
2017-09-23T01:20:04.390Z,23.9
2017-09-23T01:21:06.163Z,23.9
2017-09-23T01:22:08.292Z,23.9
2017-09-23T01:23:10.085Z,23.9
2017-09-23T01:24:11.183Z,23.9
2017-09-23T01:25:11.949Z,23.9
2017-09-23T01:26:13.744Z,23.9
2017-09-23T01:27:15.872Z,23.9
2017-09-23T01:28:17.330Z,23.9
2017-09-23T01:29:19.102Z,23.9
2017-09-23T01:30:20.872Z,23.9
2017-09-23T01:31:21.997Z,24
2017-09-23T01:32:24.129Z,24
2017-09-23T01:33:26.254Z,23.9
2017-09-23T01:34:28.050Z,23.9
2017-09-23T01:35:29.823Z,24
2017-09-23T01:36:31.950Z,23.9
2017-09-23T01:37:33.411Z,23.9
2017-09-23T01:38:35.204Z,23.9
2017-09-23T01:39:36.663Z,24
2017-09-23T01:40:38.859Z,23.9
2017-09-23T01:41:40.653Z,24
2017-09-23T01:42:42.442Z,23.9
2017-09-23T01:43:44.215Z,23.9
2017-09-23T01:44:45.324Z,23.9
2017-09-23T01:45:46.436Z,23.9
2017-09-23T01:46:48.298Z,23.9
2017-09-23T01:47:50.072Z,23.9
2017-09-23T01:48:51.174Z,24
2017-09-23T01:49:52.964Z,24
2017-09-23T01:50:54.400Z,23.9
2017-09-23T01:51:55.502Z,23.9
2017-09-23T01:52:57.293Z,23.9
2017-09-23T01:53:59.066Z,23.9
2017-09-23T01:55:01.202Z,23.9
2017-09-23T01:56:02.994Z,24
2017-09-23T01:57:04.784Z,23.9
2017-09-23T01:58:06.575Z,23.9
2017-09-23T01:59:08.372Z,23.9
2017-09-23T02:00:10.166Z,23.9
2017-09-23T02:01:12.303Z,23.9
2017-09-23T02:02:14.100Z,23.9
2017-09-23T02:03:15.896Z,23.9
2017-09-23T02:04:17.353Z,23.9
2017-09-23T02:05:19.483Z,23.9
2017-09-23T02:06:21.626Z,23.9
2017-09-23T02:07:23.070Z,23.9
2017-09-23T02:08:25.199Z,23.9
2017-09-23T02:09:26.993Z,24
2017-09-23T02:10:28.762Z,23.9
2017-09-23T02:11:30.554Z,23.9
2017-09-23T02:12:31.992Z,23.9
2017-09-23T02:13:34.120Z,23.9
2017-09-23T02:14:36.249Z,23.9
2017-09-23T02:15:38.023Z,23.9
2017-09-23T02:16:39.816Z,23.9
2017-09-23T02:17:41.586Z,24
2017-09-23T02:18:43.042Z,23.8
2017-09-23T02:19:44.812Z,23.9
2017-09-23T02:20:45.914Z,23.9
2017-09-23T02:21:48.044Z,23.9
2017-09-23T02:22:50.170Z,23.8
2017-09-23T02:23:51.960Z,23.9
2017-09-23T02:24:53.399Z,23.9
2017-09-23T02:25:55.181Z,23.9
2017-09-23T02:26:56.970Z,23.9
2017-09-23T02:27:59.095Z,23.9
2017-09-23T02:29:01.250Z,23.9
2017-09-23T02:30:02.692Z,23.9
2017-09-23T02:31:04.507Z,23.9
2017-09-23T02:32:06.634Z,23.9
2017-09-23T02:33:08.091Z,23.9
2017-09-23T02:34:09.885Z,23.9
2017-09-23T02:35:11.677Z,23.9
2017-09-23T02:36:13.473Z,23.9
2017-09-23T02:37:15.267Z,23.9
2017-09-23T02:38:17.057Z,23.8
2017-09-23T02:39:18.851Z,23.8
2017-09-23T02:40:20.981Z,23.9
2017-09-23T02:41:22.437Z,23.9
2017-09-23T02:42:23.894Z,23.8
2017-09-23T02:43:25.351Z,23.9
2017-09-23T02:44:27.144Z,23.8
2017-09-23T02:45:28.937Z,23.9
2017-09-23T02:46:31.065Z,23.8
2017-09-23T02:47:32.837Z,23.9
2017-09-23T02:48:34.626Z,23.8
2017-09-23T02:49:36.086Z,23.9
2017-09-23T02:50:37.524Z,23.8
2017-09-23T02:51:38.982Z,23.8
2017-09-23T02:52:40.772Z,23.9
2017-09-23T02:53:42.210Z,23.9
2017-09-23T02:54:44.337Z,23.8
2017-09-23T02:55:45.794Z,23.9
2017-09-23T02:56:47.252Z,23.9
2017-09-23T02:57:49.044Z,23.8
2017-09-23T02:58:50.482Z,23.9
2017-09-23T02:59:52.273Z,23.9
2017-09-23T03:00:54.400Z,23.8
2017-09-23T03:01:55.839Z,23.9
2017-09-23T03:02:57.965Z,23.9
2017-09-23T03:04:00.095Z,23.8
2017-09-23T03:05:02.222Z,23.8
2017-09-23T03:06:04.352Z,23.9
2017-09-23T03:07:06.478Z,23.8
2017-09-23T03:08:08.606Z,23.8
2017-09-23T03:09:10.065Z,23.8
2017-09-23T03:10:11.863Z,23.8
2017-09-23T03:11:13.990Z,23.8
2017-09-23T03:12:16.119Z,23.9
2017-09-23T03:13:17.910Z,23.9
2017-09-23T03:14:19.707Z,23.9
2017-09-23T03:15:20.836Z,23.8
2017-09-23T03:16:22.631Z,23.8
2017-09-23T03:17:24.406Z,23.8
2017-09-23T03:18:25.865Z,23.8
2017-09-23T03:19:27.994Z,23.8
2017-09-23T03:20:30.124Z,23.8
2017-09-23T03:21:32.247Z,23.8
2017-09-23T03:22:34.376Z,23.8
2017-09-23T03:23:36.148Z,23.8
2017-09-23T03:24:38.312Z,23.8
2017-09-23T03:25:39.751Z,23.8
2017-09-23T03:26:41.532Z,23.8
2017-09-23T03:27:42.969Z,23.9
2017-09-23T03:28:44.760Z,23.8
2017-09-23T03:29:46.553Z,23.8
2017-09-23T03:30:48.346Z,23.8
2017-09-23T03:31:50.473Z,23.8
2017-09-23T03:32:51.914Z,23.8
2017-09-23T03:33:53.684Z,23.8
2017-09-23T03:34:55.812Z,23.8
2017-09-23T03:35:56.911Z,23.8
2017-09-23T03:36:58.371Z,23.8
2017-09-23T03:38:00.498Z,23.8
2017-09-23T03:39:02.292Z,23.8
2017-09-23T03:40:04.087Z,23.8
2017-09-23T03:41:06.216Z,23.8
2017-09-23T03:42:07.988Z,23.8
2017-09-23T03:43:10.116Z,23.8
2017-09-23T03:44:12.245Z,23.8
2017-09-23T03:45:13.758Z,23.8
2017-09-23T03:46:15.550Z,23.8
2017-09-23T03:47:17.321Z,23.8
2017-09-23T03:48:19.115Z,23.8
2017-09-23T03:49:20.908Z,23.8
2017-09-23T03:50:22.011Z,23.7
2017-09-23T03:51:23.803Z,23.8
2017-09-23T03:52:25.259Z,23.8
2017-09-23T03:53:26.719Z,23.8
2017-09-23T03:54:28.217Z,23.8
2017-09-23T03:55:30.347Z,23.8
2017-09-23T03:56:32.149Z,23.7
2017-09-23T03:57:33.596Z,23.7
2017-09-23T03:58:34.701Z,23.8
2017-09-23T03:59:36.492Z,23.7
2017-09-23T04:00:38.003Z,23.8
2017-09-23T04:01:39.107Z,23.8
2017-09-23T04:02:40.233Z,23.8
2017-09-23T04:03:42.027Z,23.8
2017-09-23T04:04:44.155Z,23.8
2017-09-23T04:05:45.679Z,23.8
2017-09-23T04:06:47.824Z,23.7
2017-09-23T04:07:49.618Z,23.8
2017-09-23T04:08:51.079Z,23.8
2017-09-23T04:09:52.518Z,23.7
2017-09-23T04:10:54.313Z,23.7
2017-09-23T04:11:56.104Z,23.7
2017-09-23T04:12:57.564Z,23.8
2017-09-23T04:13:59.692Z,23.8
2017-09-23T04:15:01.130Z,23.8
2017-09-23T04:16:03.257Z,23.8
2017-09-23T04:17:05.048Z,23.8
2017-09-23T04:18:07.175Z,23.7
2017-09-23T04:19:09.303Z,23.8
2017-09-23T04:20:11.101Z,23.8
2017-09-23T04:21:13.239Z,23.8
2017-09-23T04:22:15.369Z,23.7
2017-09-23T04:23:17.496Z,23.8
2017-09-23T04:24:19.292Z,23.8
2017-09-23T04:25:20.398Z,23.8
2017-09-23T04:26:21.856Z,23.8
2017-09-23T04:27:23.650Z,23.8
2017-09-23T04:28:25.443Z,23.8
2017-09-23T04:29:27.299Z,23.8
2017-09-23T04:30:28.756Z,23.7
2017-09-23T04:31:30.885Z,23.8
2017-09-23T04:32:32.682Z,23.8
2017-09-23T04:33:34.477Z,23.7
2017-09-23T04:34:35.930Z,23.7
2017-09-23T04:35:37.723Z,23.7
2017-09-23T04:36:39.179Z,23.8
2017-09-23T04:37:40.615Z,23.7
2017-09-23T04:38:42.052Z,23.8
2017-09-23T04:39:43.845Z,23.8
2017-09-23T04:40:45.284Z,23.7
2017-09-23T04:41:47.434Z,23.7
2017-09-23T04:42:48.873Z,23.7
2017-09-23T04:43:49.979Z,23.8
2017-09-23T04:44:51.751Z,23.7
2017-09-23T04:45:53.187Z,23.7
2017-09-23T04:46:54.673Z,23.7
2017-09-23T04:47:56.785Z,23.8
2017-09-23T04:48:58.561Z,23.8
2017-09-23T04:50:00.685Z,23.7
2017-09-23T04:51:02.813Z,23.7
2017-09-23T04:52:04.608Z,23.7
2017-09-23T04:53:06.047Z,23.7
2017-09-23T04:54:07.817Z,23.6
2017-09-23T04:55:09.258Z,23.7
2017-09-23T04:56:10.715Z,23.7
2017-09-23T04:57:12.844Z,23.7
2017-09-23T04:58:14.337Z,23.7
2017-09-23T04:59:16.129Z,23.7
2017-09-23T05:00:18.254Z,23.7
2017-09-23T05:01:20.064Z,23.7
2017-09-23T05:02:21.830Z,23.7
2017-09-23T05:03:23.631Z,23.7
2017-09-23T05:04:25.090Z,23.7
2017-09-23T05:05:26.197Z,23.7
2017-09-23T05:06:27.965Z,23.7
2017-09-23T05:07:29.758Z,23.7
2017-09-23T05:08:31.886Z,23.7
2017-09-23T05:09:33.345Z,23.6
2017-09-23T05:10:34.784Z,23.7
2017-09-23T05:11:36.578Z,23.7
2017-09-23T05:12:38.370Z,23.7
2017-09-23T05:13:40.161Z,23.7
2017-09-23T05:14:41.624Z,23.7
2017-09-23T05:15:43.396Z,23.7
2017-09-23T05:16:45.526Z,23.7
2017-09-23T05:17:46.967Z,23.7
2017-09-23T05:18:49.194Z,23.7
2017-09-23T05:19:51.324Z,23.7
2017-09-23T05:20:52.781Z,23.6
2017-09-23T05:21:54.218Z,23.6
2017-09-23T05:22:55.678Z,23.7
2017-09-23T05:23:56.789Z,23.7
2017-09-23T05:24:58.248Z,23.7
2017-09-23T05:25:59.708Z,23.7
2017-09-23T05:27:01.501Z,23.7
2017-09-23T05:28:03.294Z,23.7
2017-09-23T05:29:05.067Z,23.7
2017-09-23T05:30:06.840Z,23.7
2017-09-23T05:31:08.274Z,23.7
2017-09-23T05:32:09.732Z,23.7
2017-09-23T05:33:10.834Z,23.6
2017-09-23T05:34:12.299Z,23.7
2017-09-23T05:35:13.730Z,23.7
2017-09-23T05:36:15.522Z,23.6
2017-09-23T05:37:17.656Z,23.7
2017-09-23T05:38:19.443Z,23.7
2017-09-23T05:39:21.570Z,23.7
2017-09-23T05:40:23.352Z,23.7
2017-09-23T05:41:25.501Z,23.7
2017-09-23T05:42:26.946Z,23.6
2017-09-23T05:43:28.716Z,23.7
2017-09-23T05:44:30.171Z,23.7
2017-09-23T05:45:32.298Z,23.7
2017-09-23T05:46:34.429Z,23.7
2017-09-23T05:47:36.224Z,23.7
2017-09-23T05:48:38.019Z,23.7
2017-09-23T05:49:39.457Z,23.7
2017-09-23T05:50:41.253Z,23.6
2017-09-23T05:51:43.041Z,23.7
2017-09-23T05:52:44.487Z,23.8
2017-09-23T05:53:45.950Z,23.7
2017-09-23T05:54:47.388Z,23.7
2017-09-23T05:55:49.181Z,23.7
2017-09-23T05:56:50.618Z,23.7
2017-09-23T05:57:52.414Z,23.7
2017-09-23T05:58:54.546Z,23.7
2017-09-23T05:59:56.337Z,23.7
2017-09-23T06:00:57.805Z,23.6
2017-09-23T06:01:59.247Z,23.7
2017-09-23T06:03:01.048Z,23.7
2017-09-23T06:04:03.171Z,23.7
2017-09-23T06:05:05.402Z,23.6
2017-09-23T06:06:06.861Z,23.7
2017-09-23T06:07:08.323Z,23.7
2017-09-23T06:08:10.097Z,23.7
2017-09-23T06:09:11.913Z,23.7
2017-09-23T06:10:13.352Z,23.7
2017-09-23T06:11:14.814Z,23.6
2017-09-23T06:12:16.588Z,23.7
2017-09-23T06:13:18.382Z,23.7
2017-09-23T06:14:20.179Z,23.7
2017-09-23T06:15:22.313Z,23.7
2017-09-23T06:16:23.753Z,23.7
2017-09-23T06:17:25.216Z,23.7
2017-09-23T06:18:27.347Z,23.7
2017-09-23T06:19:28.115Z,23.6
2017-09-23T06:20:29.578Z,23.7
2017-09-23T06:21:31.701Z,23.6
2017-09-23T06:22:33.497Z,23.7
2017-09-23T06:23:34.965Z,23.7
2017-09-23T06:24:36.758Z,23.7
2017-09-23T06:25:38.530Z,23.7
2017-09-23T06:26:40.661Z,23.7
2017-09-23T06:27:42.438Z,23.7
2017-09-23T06:28:44.565Z,23.7
2017-09-23T06:29:46.721Z,23.8
2017-09-23T06:30:48.849Z,23.7
2017-09-23T06:31:50.641Z,23.8
2017-09-23T06:32:52.437Z,23.7
2017-09-23T06:33:54.231Z,23.8
2017-09-23T06:34:56.358Z,23.7
2017-09-23T06:35:58.488Z,23.8
2017-09-23T06:37:00.285Z,23.8
2017-09-23T06:38:02.414Z,23.7
2017-09-23T06:39:03.187Z,23.7
2017-09-23T06:40:04.978Z,23.7
2017-09-23T06:41:06.443Z,23.7
2017-09-23T06:42:08.237Z,23.8
2017-09-23T06:43:10.028Z,23.7
2017-09-23T06:44:11.465Z,23.8
2017-09-23T06:45:13.240Z,23.8
2017-09-23T06:46:15.038Z,23.8
2017-09-23T06:47:16.475Z,23.7
2017-09-23T06:48:18.248Z,23.8
2017-09-23T06:49:19.353Z,23.7
2017-09-23T06:50:20.792Z,23.8
2017-09-23T06:51:22.585Z,23.8
2017-09-23T06:52:24.380Z,23.7
2017-09-23T06:53:26.510Z,23.8
2017-09-23T06:54:28.283Z,23.8
2017-09-23T06:55:30.058Z,23.8
2017-09-23T06:56:32.186Z,23.8
2017-09-23T06:57:33.624Z,23.8
2017-09-23T06:58:35.399Z,23.8
2017-09-23T06:59:37.196Z,23.8
2017-09-23T07:00:38.631Z,23.8
2017-09-23T07:01:40.761Z,23.8
2017-09-23T07:02:42.221Z,23.8
2017-09-23T07:03:43.681Z,23.8
2017-09-23T07:04:45.121Z,23.8
2017-09-23T07:05:46.558Z,23.8
2017-09-23T07:06:48.002Z,23.8
2017-09-23T07:07:49.790Z,23.8
2017-09-23T07:08:50.924Z,23.8
2017-09-23T07:09:52.716Z,23.8
2017-09-23T07:10:54.488Z,23.8
2017-09-23T07:11:56.615Z,23.8
2017-09-23T07:12:57.726Z,23.8
2017-09-23T07:13:59.184Z,23.8
2017-09-23T07:15:00.985Z,23.8
2017-09-23T07:16:02.752Z,23.8
2017-09-23T07:17:04.887Z,23.8
2017-09-23T07:18:06.325Z,23.8
2017-09-23T07:19:08.123Z,23.8
2017-09-23T07:20:09.582Z,23.8
2017-09-23T07:21:10.685Z,23.8
2017-09-23T07:22:12.816Z,23.8
2017-09-23T07:23:14.945Z,23.8
2017-09-23T07:24:16.743Z,23.8
2017-09-23T07:25:18.874Z,23.8
2017-09-23T07:26:21.000Z,23.8
2017-09-23T07:27:23.130Z,23.9
2017-09-23T07:28:24.586Z,23.8
2017-09-23T07:29:26.715Z,23.8
2017-09-23T07:30:28.177Z,23.8
2017-09-23T07:31:29.640Z,23.8
2017-09-23T07:32:31.421Z,23.8
2017-09-23T07:33:33.196Z,23.9
2017-09-23T07:34:34.969Z,23.9
2017-09-23T07:35:36.425Z,23.9
2017-09-23T07:36:37.538Z,24
2017-09-23T07:37:39.334Z,23.8
2017-09-23T07:38:41.462Z,23.9
2017-09-23T07:39:43.590Z,23.9
2017-09-23T07:40:45.719Z,23.9
2017-09-23T07:41:46.822Z,23.9
2017-09-23T07:42:48.949Z,23.9
2017-09-23T07:43:50.724Z,23.9
2017-09-23T07:44:52.186Z,23.9
2017-09-23T07:45:53.642Z,23.9
2017-09-23T07:46:55.416Z,23.9
2017-09-23T07:47:57.549Z,23.9
2017-09-23T07:48:58.985Z,23.9
2017-09-23T07:50:01.118Z,23.9
2017-09-23T07:51:02.575Z,23.9
2017-09-23T07:52:04.032Z,23.9
2017-09-23T07:53:05.493Z,23.9
2017-09-23T07:54:07.286Z,23.9
2017-09-23T07:55:09.414Z,23.9
2017-09-23T07:56:10.871Z,23.9
2017-09-23T07:57:12.668Z,23.9
2017-09-23T07:58:14.459Z,23.9
2017-09-23T07:59:15.922Z,23.9
2017-09-23T08:00:18.053Z,23.9
2017-09-23T08:01:19.827Z,23.9
2017-09-23T08:02:21.958Z,23.9
2017-09-23T08:03:23.421Z,23.9
2017-09-23T08:04:24.863Z,23.9
2017-09-23T08:05:26.991Z,24
2017-09-23T08:06:28.449Z,23.9
2017-09-23T08:07:30.221Z,23.9
2017-09-23T08:08:32.016Z,24
2017-09-23T08:09:34.145Z,23.9
2017-09-23T08:10:35.604Z,23.9
2017-09-23T08:11:37.734Z,23.9
2017-09-23T08:12:39.867Z,24
2017-09-23T08:13:41.323Z,24
2017-09-23T08:14:42.761Z,24
2017-09-23T08:15:44.223Z,24
2017-09-23T08:16:46.355Z,24
2017-09-23T08:17:48.152Z,24
2017-09-23T08:18:49.945Z,24
2017-09-23T08:19:51.738Z,24.1
2017-09-23T08:20:53.197Z,24.1
2017-09-23T08:21:54.997Z,24
2017-09-23T08:22:56.788Z,24.1
2017-09-23T08:23:57.916Z,24.1
2017-09-23T08:24:59.715Z,24
2017-09-23T08:26:01.842Z,24
2017-09-23T08:27:03.639Z,24
2017-09-23T08:28:04.745Z,24.1
2017-09-23T08:29:06.883Z,24
2017-09-23T08:30:08.659Z,24.1
2017-09-23T08:31:10.458Z,24
2017-09-23T08:32:11.900Z,24.1
2017-09-23T08:33:14.028Z,24.1
2017-09-23T08:34:15.822Z,24.1
2017-09-23T08:35:16.924Z,24.1
2017-09-23T08:36:18.057Z,24.1
2017-09-23T08:37:20.190Z,24.2
2017-09-23T08:38:22.033Z,24.1
2017-09-23T08:39:24.164Z,24
2017-09-23T08:40:25.938Z,24
2017-09-23T08:41:27.734Z,24.1
2017-09-23T08:42:29.196Z,24.1
2017-09-23T08:43:30.633Z,24.1
2017-09-23T08:44:32.095Z,24.2
2017-09-23T08:45:33.888Z,24.1
2017-09-23T08:46:35.684Z,24
2017-09-23T08:47:37.148Z,24.1
2017-09-23T08:48:38.942Z,24.1
2017-09-23T08:49:40.740Z,24.2
2017-09-23T08:50:42.543Z,24
2017-09-23T08:51:43.998Z,24.2
2017-09-23T08:52:45.797Z,24.1
2017-09-23T08:53:47.676Z,24.1
2017-09-23T08:54:49.808Z,24.1
2017-09-23T08:55:51.600Z,24.1
2017-09-23T08:56:53.393Z,24
2017-09-23T08:57:55.171Z,24.1
2017-09-23T08:58:56.947Z,24
2017-09-23T08:59:58.410Z,24
2017-09-23T09:01:00.205Z,24
2017-09-23T09:02:02.338Z,24.2
2017-09-23T09:03:03.778Z,24.1
2017-09-23T09:04:05.727Z,24.2
2017-09-23T09:05:07.517Z,24.2
2017-09-23T09:06:08.623Z,24.1
2017-09-23T09:07:10.418Z,24
2017-09-23T09:08:11.858Z,24.1
2017-09-23T09:09:13.649Z,24.2
2017-09-23T09:10:15.089Z,24.1
2017-09-23T09:11:17.219Z,24.1
2017-09-23T09:12:18.656Z,24.2
2017-09-23T09:13:20.785Z,24.1
2017-09-23T09:14:22.225Z,24.1
2017-09-23T09:15:23.691Z,24.2
2017-09-23T09:16:25.484Z,24.1
2017-09-23T09:17:27.285Z,24.1
2017-09-23T09:18:29.078Z,24.1
2017-09-23T09:19:30.672Z,24.1
2017-09-23T09:20:31.794Z,24.3
2017-09-23T09:21:33.920Z,24.2
2017-09-23T09:22:35.367Z,24.2
2017-09-23T09:23:37.160Z,24.3
2017-09-23T09:24:39.288Z,24.2
2017-09-23T09:25:41.063Z,24.2
2017-09-23T09:26:42.858Z,24.3
2017-09-23T09:27:44.652Z,24.2
2017-09-23T09:28:46.784Z,24.2
2017-09-23T09:29:48.578Z,24.2
2017-09-23T09:30:50.379Z,24.3
2017-09-23T09:31:52.151Z,24.3
2017-09-23T09:32:54.280Z,24.3
2017-09-23T09:33:56.078Z,24.2
2017-09-23T09:34:57.931Z,24.3
2017-09-23T09:35:59.385Z,24.3
2017-09-23T09:37:01.186Z,24.2
2017-09-23T09:38:02.651Z,24.2
2017-09-23T09:39:03.752Z,24.2
2017-09-23T09:40:04.527Z,24.3
2017-09-23T09:41:05.636Z,24.3
2017-09-23T09:42:07.096Z,24.3
2017-09-23T09:43:08.895Z,24.3
2017-09-23T09:44:10.690Z,24.3
2017-09-23T09:45:12.485Z,24.3
2017-09-23T09:46:14.614Z,24.3
2017-09-23T09:47:16.747Z,24.3
2017-09-23T09:48:18.539Z,24.3
2017-09-23T09:49:19.981Z,24.3
2017-09-23T09:50:20.752Z,24.3
2017-09-23T09:51:22.239Z,24.2
2017-09-23T09:52:24.034Z,24.3
2017-09-23T09:53:26.188Z,24.3
2017-09-23T09:54:27.984Z,24.2
2017-09-23T09:55:29.780Z,24.3
2017-09-23T09:56:31.576Z,24.4
2017-09-23T09:57:33.707Z,24.3
2017-09-23T09:58:35.839Z,24.3
2017-09-23T09:59:37.636Z,24.4
2017-09-23T10:00:39.765Z,24.4
2017-09-23T10:01:41.562Z,24.4
2017-09-23T10:02:43.356Z,24.4
2017-09-23T10:03:44.817Z,24.4
2017-09-23T10:04:46.259Z,24.4
2017-09-23T10:05:48.048Z,24.4
2017-09-23T10:06:49.175Z,24.4
2017-09-23T10:07:50.968Z,24.5
2017-09-23T10:08:52.408Z,24.5
2017-09-23T10:09:54.537Z,24.5
2017-09-23T10:10:56.330Z,24.5
2017-09-23T10:11:57.804Z,24.4
2017-09-23T10:12:58.911Z,24.5
2017-09-23T10:14:00.376Z,24.5
2017-09-23T10:15:01.820Z,24.5
2017-09-23T10:16:03.609Z,24.5
2017-09-23T10:17:05.404Z,24.5
2017-09-23T10:18:06.852Z,24.5
2017-09-23T10:19:08.981Z,24.6
2017-09-23T10:20:10.775Z,24.6
2017-09-23T10:21:12.214Z,24.5
2017-09-23T10:22:13.323Z,24.5
2017-09-23T10:23:15.453Z,24.6
2017-09-23T10:24:17.317Z,24.6
2017-09-23T10:25:19.109Z,24.6
2017-09-23T10:26:21.241Z,24.5
2017-09-23T10:27:22.706Z,24.5
2017-09-23T10:28:24.143Z,24.5
2017-09-23T10:29:25.918Z,24.5
2017-09-23T10:30:27.021Z,24.6
2017-09-23T10:31:28.817Z,24.6
2017-09-23T10:32:30.616Z,24.6
2017-09-23T10:33:32.388Z,24.5
2017-09-23T10:34:34.516Z,24.6
2017-09-23T10:35:36.314Z,24.6
2017-09-23T10:36:38.441Z,24.5
2017-09-23T10:37:39.880Z,24.5
2017-09-23T10:38:41.324Z,24.6
2017-09-23T10:39:43.121Z,24.7
2017-09-23T10:40:44.583Z,24.6
2017-09-23T10:41:46.377Z,24.5
2017-09-23T10:42:48.172Z,24.6
2017-09-23T10:43:50.304Z,24.6
2017-09-23T10:44:51.418Z,24.6
2017-09-23T10:45:53.231Z,24.6
2017-09-23T10:46:55.344Z,24.6
2017-09-23T10:47:56.806Z,24.6
2017-09-23T10:48:57.946Z,24.6
2017-09-23T10:49:59.727Z,24.5
2017-09-23T10:51:01.192Z,24.6
2017-09-23T10:52:02.659Z,24.6
2017-09-23T10:53:04.450Z,24.6
2017-09-23T10:54:05.909Z,24.6
2017-09-23T10:55:08.038Z,24.5
2017-09-23T10:56:10.180Z,24.6
2017-09-23T10:57:11.957Z,24.6
2017-09-23T10:58:14.085Z,24.6
2017-09-23T10:59:15.527Z,24.6
2017-09-23T11:00:17.303Z,24.6
2017-09-23T11:01:18.763Z,24.6
2017-09-23T11:02:20.557Z,24.6
2017-09-23T11:03:22.007Z,24.6
2017-09-23T11:04:24.137Z,24.6
2017-09-23T11:05:25.946Z,24.6
2017-09-23T11:06:28.097Z,24.6
2017-09-23T11:07:30.227Z,24.6
2017-09-23T11:08:31.685Z,24.6
2017-09-23T11:09:33.815Z,24.6
2017-09-23T11:10:35.276Z,24.6
2017-09-23T11:11:36.715Z,24.6
2017-09-23T11:12:38.842Z,24.6
2017-09-23T11:13:40.649Z,24.7
2017-09-23T11:14:42.771Z,24.6
2017-09-23T11:15:44.567Z,24.6
2017-09-23T11:16:46.028Z,24.6
2017-09-23T11:17:47.488Z,24.6
2017-09-23T11:18:49.621Z,24.6
2017-09-23T11:19:51.416Z,24.7
2017-09-23T11:20:53.225Z,24.7
2017-09-23T11:21:54.992Z,24.6
2017-09-23T11:22:56.450Z,24.7
2017-09-23T11:23:57.911Z,24.7
2017-09-23T11:24:59.705Z,24.7
2017-09-23T11:26:01.167Z,24.7
2017-09-23T11:27:02.962Z,24.6
2017-09-23T11:28:04.092Z,24.7
2017-09-23T11:29:05.554Z,24.7
2017-09-23T11:30:07.350Z,24.6
2017-09-23T11:31:09.481Z,24.7
2017-09-23T11:32:10.922Z,24.7
2017-09-23T11:33:12.715Z,24.7
2017-09-23T11:34:14.844Z,24.7
2017-09-23T11:35:16.974Z,24.6
2017-09-23T11:36:18.773Z,24.7
2017-09-23T11:37:20.275Z,24.6
2017-09-23T11:38:22.122Z,24.7
2017-09-23T11:39:23.560Z,24.7
2017-09-23T11:40:25.356Z,24.7
2017-09-23T11:41:26.791Z,24.6
2017-09-23T11:42:28.233Z,24.7
2017-09-23T11:43:30.030Z,24.6
2017-09-23T11:44:31.136Z,24.7
2017-09-23T11:45:32.912Z,24.7
2017-09-23T11:46:34.684Z,24.7
2017-09-23T11:47:36.484Z,24.7
2017-09-23T11:48:37.586Z,24.8
2017-09-23T11:49:39.717Z,24.7
2017-09-23T11:50:40.845Z,24.8
2017-09-23T11:51:42.284Z,24.7
2017-09-23T11:52:44.056Z,24.7
2017-09-23T11:53:45.496Z,24.8
2017-09-23T11:54:47.291Z,24.8
2017-09-23T11:55:49.088Z,24.8
2017-09-23T11:56:50.191Z,24.8
2017-09-23T11:57:52.321Z,24.9
2017-09-23T11:58:54.219Z,24.8
2017-09-23T11:59:55.324Z,24.9
2017-09-23T12:00:57.098Z,24.7
2017-09-23T12:01:59.230Z,24.8
2017-09-23T12:03:01.027Z,24.8
2017-09-23T12:04:02.471Z,24.8
2017-09-23T12:05:04.249Z,24.9
2017-09-23T12:06:05.024Z,24.8
2017-09-23T12:07:07.157Z,24.8
2017-09-23T12:08:08.602Z,24.9
2017-09-23T12:09:10.039Z,24.8
2017-09-23T12:10:11.495Z,24.9
2017-09-23T12:11:12.954Z,24.9
2017-09-23T12:12:14.414Z,24.8
2017-09-23T12:13:15.875Z,24.8
2017-09-23T12:14:17.338Z,24.9
2017-09-23T12:15:19.133Z,24.9
2017-09-23T12:16:20.929Z,24.9
2017-09-23T12:17:22.726Z,24.9
2017-09-23T12:18:24.527Z,24.9
2017-09-23T12:19:26.113Z,24.9
2017-09-23T12:20:27.910Z,24.9
2017-09-23T12:21:29.706Z,24.9
2017-09-23T12:22:31.148Z,24.9
2017-09-23T12:23:32.612Z,24.8
2017-09-23T12:24:34.505Z,24.8
2017-09-23T12:25:35.944Z,24.9
2017-09-23T12:26:37.720Z,24.9
2017-09-23T12:27:39.885Z,24.9
2017-09-23T12:28:41.646Z,24.9
2017-09-23T12:29:43.137Z,24.9
2017-09-23T12:30:45.267Z,24.9
2017-09-23T12:31:46.370Z,24.9
2017-09-23T12:32:48.501Z,24.9
2017-09-23T12:33:50.298Z,24.9
2017-09-23T12:34:52.145Z,25
2017-09-23T12:35:54.274Z,24.9
2017-09-23T12:36:56.409Z,24.9
2017-09-23T12:37:58.543Z,25
2017-09-23T12:39:00.324Z,25
2017-09-23T12:40:02.119Z,24.9
2017-09-23T12:41:04.253Z,25
2017-09-23T12:42:06.048Z,24.9
2017-09-23T12:43:07.848Z,25
2017-09-23T12:44:09.644Z,24.9
2017-09-23T12:45:11.104Z,25
2017-09-23T12:46:12.543Z,24.9
2017-09-23T12:47:14.678Z,24.8
2017-09-23T12:48:15.782Z,24.9
2017-09-23T12:49:17.914Z,24.9
2017-09-23T12:50:19.375Z,24.8
2017-09-23T12:51:21.169Z,24.9
2017-09-23T12:52:22.629Z,24.9
2017-09-23T12:53:24.429Z,24.9
2017-09-23T12:54:26.201Z,24.9
2017-09-23T12:55:27.306Z,25
2017-09-23T12:56:29.109Z,24.9
2017-09-23T12:57:31.232Z,24.9
2017-09-23T12:58:32.673Z,24.9
2017-09-23T12:59:34.132Z,24.9
2017-09-23T13:00:35.927Z,25
2017-09-23T13:01:37.366Z,25
2017-09-23T13:02:39.497Z,24.9
2017-09-23T13:03:40.606Z,24.9
2017-09-23T13:04:42.733Z,24.9
2017-09-23T13:05:44.864Z,24.9
2017-09-23T13:06:46.639Z,24.9
2017-09-23T13:07:48.100Z,24.8
2017-09-23T13:08:49.542Z,24.9
2017-09-23T13:09:51.676Z,24.9
2017-09-23T13:10:53.849Z,24.9
2017-09-23T13:11:55.645Z,24.9
2017-09-23T13:12:57.442Z,24.9
2017-09-23T13:13:58.544Z,24.9
2017-09-23T13:15:00.006Z,24.9
2017-09-23T13:16:01.806Z,24.9
2017-09-23T13:17:03.600Z,24.9
2017-09-23T13:18:04.370Z,24.9
2017-09-23T13:19:05.476Z,24.9
2017-09-23T13:20:07.604Z,24.9
2017-09-23T13:21:09.403Z,24.9
2017-09-23T13:22:11.532Z,24.9
2017-09-23T13:23:13.661Z,24.9
2017-09-23T13:24:15.436Z,25
2017-09-23T13:25:17.234Z,24.9
2017-09-23T13:26:18.698Z,24.8
2017-09-23T13:27:20.499Z,24.9
2017-09-23T13:28:21.603Z,24.9
2017-09-23T13:29:23.398Z,24.9
2017-09-23T13:30:25.176Z,25
2017-09-23T13:31:26.615Z,25
2017-09-23T13:32:28.075Z,24.9
2017-09-23T13:33:29.538Z,24.9
2017-09-23T13:34:31.338Z,24.9
2017-09-23T13:35:33.132Z,25
2017-09-23T13:36:34.593Z,25
2017-09-23T13:37:36.055Z,24.9
2017-09-23T13:38:37.859Z,24.9
2017-09-23T13:39:39.303Z,25
2017-09-23T13:40:40.788Z,24.9
2017-09-23T13:41:42.590Z,24.9
2017-09-23T13:42:44.395Z,24.9
2017-09-23T13:43:45.492Z,24.9
2017-09-23T13:44:46.955Z,25
2017-09-23T13:45:48.089Z,24.9
2017-09-23T13:46:49.596Z,25
2017-09-23T13:47:51.391Z,24.9
2017-09-23T13:48:53.190Z,25
2017-09-23T13:49:55.010Z,24.9